Glemsford, United Kingdom
Current Conditions -  °F | °C
As of 7:50 AM on Saturday 20 Dec 2014 (Local Time) from EGUW Reporting Station
Rain Showers Rain Showers  
Wind Chill: 32°   Ceiling: 3800
Heat Index: 41°   Visibility: 6mi
Dew Point: 37°   Wind: 17mph
Humidity: 87%   Direction: 260°W
Pressure: 30.15"   Gusts: NA
Location:  52.1°N, 0.67°E
Report Text: EGUW 200750Z AUTO 26015KT 9999 -SHRA BKN038/// 05/03 Q1021
Loading
Personal Weather Stations






























Interactive Weather Map New forecast layout! Learn more

10-Day Weather Forecast

Advertisements
Track Severe Weather on mobile